Time;durP1;ratioP1;P1;durP2;ratioP2;P2;SDS_P1;SDS_P2;PMS_P1;PMS_P2;Temp;Humidity;BMP_temperature;BMP_pressure;BME280_temperature;BME280_humidity;BME280_pressure;Samples;Min_cycle;Max_cycle;Signal;HPM_P1;HPM_P2
2021/06/23 00:01:15;;;;;;;14.97;5.83;;;14.70;99.90;;;;;;5012917;28;20642;-74
2021/06/23 00:03:45;;;;;;;9.90;5.53;;;14.70;99.90;;;;;;5015413;28;20246;-75
2021/06/23 00:06:12;;;;;;;22.33;5.70;;;14.70;99.90;;;;;;5013779;28;20211;-74
2021/06/23 00:08:39;;;;;;;10.50;6.10;;;14.80;99.90;;;;;;5012567;28;20287;-74
2021/06/23 00:11:06;;;;;;;13.53;5.33;;;14.70;99.90;;;;;;5013316;28;20239;-75
2021/06/23 00:13:35;;;;;;;7.73;5.37;;;14.70;99.90;;;;;;5012580;28;20240;-74
2021/06/23 00:16:02;;;;;;;9.37;5.07;;;14.70;99.90;;;;;;5015574;28;20243;-72
2021/06/23 00:18:29;;;;;;;12.40;5.53;;;14.70;99.90;;;;;;5013457;28;20250;-72
2021/06/23 00:20:57;;;;;;;8.37;5.77;;;14.70;99.90;;;;;;5013631;28;20295;-72
2021/06/23 00:23:24;;;;;;;9.90;5.33;;;14.70;99.90;;;;;;5013680;28;20255;-73
2021/06/23 00:25:51;;;;;;;15.23;5.80;;;14.60;99.90;;;;;;5014593;28;20315;-73
2021/06/23 00:28:18;;;;;;;18.80;5.67;;;14.60;99.90;;;;;;5016898;28;20295;-73
2021/06/23 00:30:45;;;;;;;8.80;5.20;;;14.60;99.90;;;;;;5019236;28;20664;-73
2021/06/23 00:33:18;;;;;;;10.00;5.17;;;14.60;99.90;;;;;;5011843;28;20267;-74
2021/06/23 00:35:45;;;;;;;10.90;5.57;;;14.60;99.90;;;;;;5014593;28;20339;-74
2021/06/23 00:38:14;;;;;;;12.53;6.07;;;14.60;99.90;;;;;;5014284;28;20227;-73
2021/06/23 00:40:41;;;;;;;12.93;6.13;;;14.70;99.90;;;;;;5011102;28;20291;-73
2021/06/23 00:43:08;;;;;;;14.33;5.93;;;14.60;99.90;;;;;;5020195;28;20295;-74
2021/06/23 00:45:35;;;;;;;8.47;5.70;;;14.60;99.90;;;;;;5012740;28;20774;-74
2021/06/23 00:48:07;;;;;;;8.63;5.67;;;14.60;99.90;;;;;;5014222;28;20311;-73
2021/06/23 00:50:34;;;;;;;10.77;5.43;;;14.60;99.90;;;;;;5015150;28;20215;-73
2021/06/23 00:53:02;;;;;;;9.97;5.80;;;14.70;99.90;;;;;;5012122;28;20204;-73
2021/06/23 00:55:30;;;;;;;9.27;5.30;;;14.70;99.90;;;;;;5013171;28;20314;-73
2021/06/23 00:57:57;;;;;;;10.20;5.83;;;14.70;99.90;;;;;;5014814;28;20840;-73
2021/06/23 01:00:26;;;;;;;9.10;5.53;;;14.60;99.90;;;;;;5013253;28;20651;-72
2021/06/23 01:02:54;;;;;;;9.70;5.50;;;14.60;99.90;;;;;;5018503;28;20263;-73
2021/06/23 01:05:21;;;;;;;13.80;5.77;;;14.60;99.90;;;;;;5014441;28;20263;-73
2021/06/23 01:07:49;;;;;;;9.10;5.07;;;14.60;99.90;;;;;;5011509;28;20291;-72
2021/06/23 01:10:16;;;;;;;15.40;5.73;;;14.70;99.90;;;;;;5014198;28;20202;-73
2021/06/23 01:12:58;;;;;;;13.60;5.80;;;14.70;99.90;;;;;;5012596;28;20209;-73
2021/06/23 01:15:26;;;;;;;16.80;5.37;;;14.60;99.90;;;;;;5011808;28;20228;-73
2021/06/23 01:17:55;;;;;;;13.33;5.10;;;14.60;99.90;;;;;;5017000;28;20210;-73
2021/06/23 01:20:22;;;;;;;11.47;5.40;;;14.70;99.90;;;;;;5011965;28;20256;-73
2021/06/23 01:22:50;;;;;;;8.27;4.90;;;;;;;;;;5011147;28;20239;-72
2021/06/23 01:25:18;;;;;;;11.40;4.97;;;;;;;;;;5012345;28;20306;-73
2021/06/23 01:27:46;;;;;;;9.13;5.40;;;;;;;;;;5011993;28;20300;-73
2021/06/23 01:30:15;;;;;;;10.03;5.03;;;;;;;;;;5011285;28;20205;-74
2021/06/23 01:32:42;;;;;;;8.87;5.33;;;;;;;;;;5011750;28;20212;-73
2021/06/23 01:35:10;;;;;;;10.23;5.00;;;;;;;;;;5016048;28;20291;-72
2021/06/23 01:37:37;;;;;;;10.70;5.37;;;;;;;;;;5017073;28;20240;-73
2021/06/23 01:40:06;;;;;;;9.83;5.00;;;;;;;;;;5011890;28;20308;-73
2021/06/23 01:42:34;;;;;;;8.20;5.33;;;;;;;;;;5012328;28;20295;-72
2021/06/23 01:45:01;;;;;;;13.53;5.80;;;;;;;;;;5010729;28;20327;-73
2021/06/23 01:47:29;;;;;;;9.47;5.00;;;;;;;;;;5014044;28;20201;-73
2021/06/23 01:49:56;;;;;;;15.20;5.97;;;;;;;;;;5011061;28;20297;-71
2021/06/23 01:52:23;;;;;;;11.03;5.33;;;;;;;;;;5024584;28;20295;-73
2021/06/23 01:54:52;;;;;;;10.53;5.30;;;;;;;;;;5010796;28;20311;-73
2021/06/23 01:57:21;;;;;;;10.30;5.80;;;;;;;;;;5012099;28;20199;-73
2021/06/23 01:59:49;;;;;;;8.37;5.17;;;;;;;;;;5012255;28;20211;-73
2021/06/23 02:02:22;;;;;;;9.47;5.47;;;;;;;;;;5014022;28;20384;-74
2021/06/23 02:04:51;;;;;;;8.77;5.47;;;;;;;;;;5014242;28;20326;-73
2021/06/23 02:07:38;;;;;;;14.17;5.10;;;;;;;;;;5024972;28;20294;-71
2021/06/23 02:10:16;;;;;;;10.60;4.80;;;;;;;;;;5004557;28;20208;-73
2021/06/23 02:13:13;;;;;;;8.37;5.07;;;;;;;;;;5020363;28;20295;-72
2021/06/23 02:15:41;;;;;;;7.77;5.67;;;;;;;;;;5015176;28;20666;-73
2021/06/23 02:18:09;;;;;;;13.80;5.70;;;;;;;;;;5012287;28;20208;-72
2021/06/23 02:20:36;;;;;;;15.90;4.93;;;;;;;;;;5010832;28;20589;-73
2021/06/23 02:23:05;;;;;;;16.80;5.47;;;;;;;;;;5012465;28;20220;-73
2021/06/23 02:25:32;;;;;;;10.83;5.10;;;;;;;;;;5020194;28;20255;-72
2021/06/23 02:28:01;;;;;;;12.43;5.20;;;;;;;;;;5013106;28;20750;-72
2021/06/23 02:30:28;;;;;;;9.80;5.60;;;;;;;;;;5013849;28;20275;-72
2021/06/23 02:32:56;;;;;;;14.20;5.70;;;;;;;;;;5018521;28;20299;-73
2021/06/23 02:35:26;;;;;;;11.13;6.03;;;;;;;;;;5010847;28;20248;-73
2021/06/23 02:37:54;;;;;;;13.00;5.27;;;;;;;;;;5015353;28;20204;-73
2021/06/23 02:40:22;;;;;;;13.13;5.93;;;;;;;;;;5011736;28;20392;-73
2021/06/23 02:42:50;;;;;;;12.17;5.07;;;;;;;;;;5013056;28;20296;-73
2021/06/23 02:45:19;;;;;;;10.40;5.23;;;;;;;;;;5012851;28;20311;-72
2021/06/23 02:47:46;;;;;;;11.50;5.47;;;;;;;;;;5015303;28;20248;-73
2021/06/23 02:50:13;;;;;;;9.70;5.63;;;;;;;;;;5011950;28;20228;-72
2021/06/23 02:52:41;;;;;;;10.83;5.13;;;;;;;;;;5011597;28;20478;-72
2021/06/23 02:55:09;;;;;;;13.40;5.10;;;;;;;;;;5012121;28;20316;-74
2021/06/23 02:57:36;;;;;;;18.30;5.67;;;;;;;;;;5018266;28;20708;-73
2021/06/23 03:00:05;;;;;;;10.73;4.93;;;;;;;;;;5017552;28;20242;-72
2021/06/23 03:02:34;;;;;;;9.77;5.07;;;;;;;;;;5014794;28;20208;-73
2021/06/23 03:05:01;;;;;;;9.50;5.53;;;;;;;;;;5016917;28;20215;-72
2021/06/23 03:07:28;;;;;;;11.03;5.13;;;;;;;;;;5017122;28;20325;-72
2021/06/23 03:10:02;;;;;;;9.30;5.13;;;;;;;;;;5016720;28;20291;-72
2021/06/23 03:12:30;;;;;;;11.23;5.00;;;;;;;;;;5016095;28;20632;-73
2021/06/23 03:14:57;;;;;;;9.53;4.97;;;;;;;;;;5023072;28;20676;-73
2021/06/23 03:17:24;;;;;;;8.67;5.10;;;;;;;;;;5021723;28;20347;-73
2021/06/23 03:19:52;;;;;;;7.97;5.43;;;;;;;;;;5018641;28;20315;-72
2021/06/23 03:22:20;;;;;;;16.43;5.30;;;;;;;;;;5015627;28;20204;-73
2021/06/23 03:24:47;;;;;;;12.87;5.30;;;;;;;;;;5015441;28;20781;-74
2021/06/23 03:27:15;;;;;;;11.47;5.27;;;;;;;;;;5015506;28;20298;-72
2021/06/23 03:29:42;;;;;;;7.73;5.23;;;;;;;;;;5016127;28;20287;-73
2021/06/23 03:32:11;;;;;;;13.03;5.50;;;;;;;;;;5017254;28;20678;-73
2021/06/23 03:34:39;;;;;;;9.47;5.50;;;;;;;;;;5014705;28;20232;-72
2021/06/23 03:37:08;;;;;;;11.50;5.33;;;;;;;;;;5014741;28;20212;-73
2021/06/23 03:39:35;;;;;;;16.60;5.63;;;;;;;;;;5016447;28;20224;-72
2021/06/23 03:42:02;;;;;;;14.40;5.93;;;;;;;;;;5016730;28;20296;-72
2021/06/23 03:44:29;;;;;;;10.13;5.17;;;;;;;;;;5013957;28;20686;-72
2021/06/23 03:46:57;;;;;;;10.50;5.30;;;;;;;;;;5017525;28;20291;-72
2021/06/23 03:49:24;;;;;;;7.87;4.73;;;;;;;;;;5014745;28;20224;-79
2021/06/23 03:51:51;;;;;;;9.17;5.13;;;;;;;;;;5021337;28;20240;-74
2021/06/23 03:54:20;;;;;;;10.37;5.33;;;;;;;;;;5022230;28;20332;-75
2021/06/23 03:56:47;;;;;;;9.97;5.00;;;;;;;;;;5013879;28;20208;-74
2021/06/23 03:59:14;;;;;;;9.80;5.03;;;;;;;;;;5019312;28;20231;-74
2021/06/23 04:01:41;;;;;;;10.80;5.33;;;;;;;;;;5016970;28;20295;-75
2021/06/23 04:04:08;;;;;;;10.93;4.90;;;;;;;;;;5018417;28;20266;-75
2021/06/23 04:06:36;;;;;;;9.57;4.97;;;;;;;;;;5018115;28;20243;-75
2021/06/23 04:09:03;;;;;;;12.63;5.17;;;;;;;;;;5021170;28;20290;-75
2021/06/23 04:11:31;;;;;;;9.80;4.97;;;;;;;;;;5015499;28;20295;-74
2021/06/23 04:13:59;;;;;;;7.17;4.97;;;;;;;;;;5020634;28;20245;-75
2021/06/23 04:16:26;;;;;;;9.13;5.63;;;;;;;;;;5017012;28;20264;-74
2021/06/23 04:18:53;;;;;;;10.77;5.47;;;;;;;;;;5011996;28;20647;-75
2021/06/23 04:21:20;;;;;;;12.97;5.37;;;;;;;;;;5008891;28;20318;-75
2021/06/23 04:23:47;;;;;;;9.87;6.20;;;;;;;;;;5019593;28;20644;-75
2021/06/23 04:26:14;;;;;;;10.47;5.33;;;;;;;;;;5010691;28;20206;-74
2021/06/23 04:28:43;;;;;;;9.23;5.53;;;;;;;;;;5009455;28;20781;-74
2021/06/23 04:31:10;;;;;;;10.77;5.87;;;;;;;;;;5025143;22;20230;-73
2021/06/23 04:33:37;;;;;;;10.70;5.73;;;;;;;;;;5017991;28;20248;-75
2021/06/23 04:36:05;;;;;;;9.90;5.17;;;;;;;;;;5019505;28;20287;-75
2021/06/23 04:38:32;;;;;;;8.30;5.63;;;;;;;;;;5022627;28;20297;-75
2021/06/23 04:40:59;;;;;;;10.93;5.67;;;;;;;;;;5021302;28;20243;-74
2021/06/23 04:43:26;;;;;;;10.43;5.47;;;;;;;;;;5023130;28;20298;-75
2021/06/23 04:45:55;;;;;;;11.93;5.20;;;;;;;;;;5019324;28;20253;-74
2021/06/23 04:48:22;;;;;;;8.30;5.07;;;;;;;;;;5025391;28;20348;-75
2021/06/23 04:50:49;;;;;;;8.73;5.47;;;;;;;;;;5035389;28;20239;-75
2021/06/23 04:53:17;;;;;;;11.43;4.67;;;;;;;;;;5025853;28;20263;-74
2021/06/23 04:55:44;;;;;;;8.73;5.33;;;;;;;;;;5034047;28;20220;-75
2021/06/23 04:58:11;;;;;;;11.20;5.30;;;;;;;;;;5033097;28;20207;-75
2021/06/23 05:00:38;;;;;;;12.80;5.67;;;;;;;;;;5025719;28;20226;-73
2021/06/23 05:03:07;;;;;;;12.97;5.00;;;;;;;;;;5020860;28;20210;-73
2021/06/23 05:05:34;;;;;;;9.17;5.80;;;;;;;;;;5018865;28;20605;-74
2021/06/23 05:08:01;;;;;;;12.83;5.33;;;;;;;;;;5019715;28;20689;-74
2021/06/23 05:10:28;;;;;;;10.43;5.30;;;;;;;;;;5025757;28;20295;-74
2021/06/23 05:12:56;;;;;;;10.43;5.47;;;;;;;;;;5021362;28;20777;-74
2021/06/23 05:15:23;;;;;;;11.43;5.40;;;;;;;;;;5019233;28;20222;-74
2021/06/23 05:17:50;;;;;;;12.23;5.77;;;;;;;;;;5020062;28;20319;-77
2021/06/23 05:20:20;;;;;;;15.83;5.87;;;;;;;;;;5021322;28;20323;-74
2021/06/23 05:22:48;;;;;;;12.87;5.47;;;;;;;;;;5019483;28;20235;-74
2021/06/23 05:25:16;;;;;;;11.47;5.30;;;;;;;;;;5023647;28;20618;-75
2021/06/23 05:27:44;;;;;;;9.33;5.10;;;;;;;;;;5015912;28;20239;-75
2021/06/23 05:30:12;;;;;;;13.67;5.17;;;;;;;;;;5018332;28;20294;-75
2021/06/23 05:32:39;;;;;;;10.07;5.30;;;;;;;;;;5019311;28;20314;-75
2021/06/23 05:35:06;;;;;;;10.77;5.37;;;;;;;;;;5019470;28;20224;-75
2021/06/23 05:37:35;;;;;;;10.27;5.23;;;;;;;;;;5020749;28;20204;-75
2021/06/23 05:40:02;;;;;;;9.87;5.10;;;;;;;;;;5020952;28;20658;-75
2021/06/23 05:42:29;;;;;;;13.60;5.30;;;;;;;;;;5017119;28;20269;-75
2021/06/23 05:44:56;;;;;;;9.17;5.37;;;;;;;;;;5012547;28;20322;-75
2021/06/23 05:47:24;;;;;;;8.30;5.40;;;;;;;;;;5015651;28;20207;-75
2021/06/23 05:49:51;;;;;;;12.40;5.60;;;;;;;;;;5013155;28;20222;-75
2021/06/23 05:52:18;;;;;;;10.57;5.57;;;;;;;;;;5014678;28;20204;-75
2021/06/23 05:54:47;;;;;;;16.13;5.37;;;;;;;;;;5015425;28;20231;-75
2021/06/23 05:57:14;;;;;;;11.93;6.00;;;;;;;;;;5015730;28;20571;-75
2021/06/23 05:59:41;;;;;;;12.63;5.80;;;;;;;;;;5014397;28;20290;-75
2021/06/23 06:02:09;;;;;;;10.50;5.70;;;;;;;;;;5017322;28;20204;-75
2021/06/23 06:04:36;;;;;;;15.53;6.10;;;;;;;;;;5016185;28;20223;-75
2021/06/23 06:07:03;;;;;;;11.70;6.60;;;;;;;;;;5017311;28;20221;-75
2021/06/23 06:09:30;;;;;;;9.30;5.67;;;;;;;;;;5012748;28;20356;-75
2021/06/23 06:11:59;;;;;;;9.87;6.23;;;;;;;;;;5013338;28;20235;-75
2021/06/23 06:14:26;;;;;;;10.97;6.27;;;;;;;;;;5015952;28;20231;-75
2021/06/23 06:16:54;;;;;;;12.80;6.37;;;;;;;;;;5013220;28;20287;-75
2021/06/23 06:19:22;;;;;;;14.50;6.43;;;;;;;;;;5017615;28;20283;-75
2021/06/23 06:21:49;;;;;;;12.60;5.87;;;;;;;;;;5015029;28;20679;-75
2021/06/23 06:24:16;;;;;;;11.87;6.13;;;;;;;;;;5013877;28;20321;-75
2021/06/23 06:26:43;;;;;;;10.57;5.97;;;14.70;99.90;;;;;;5014913;28;20331;-75
2021/06/23 06:29:11;;;;;;;10.40;5.83;;;17.90;99.90;;;;;;5015051;28;20231;-75
2021/06/23 06:31:38;;;;;;;11.17;5.30;;;17.60;99.90;;;;;;5017777;28;20288;-76
2021/06/23 06:34:05;;;;;;;11.50;6.07;;;17.80;99.90;;;;;;5018340;28;20259;-75
2021/06/23 06:36:32;;;;;;;20.33;5.80;;;17.80;99.90;;;;;;5018156;28;20280;-76
2021/06/23 06:38:59;;;;;;;11.00;6.30;;;17.80;99.90;;;;;;5020136;28;20756;-76
2021/06/23 06:41:26;;;;;;;10.80;5.57;;;17.90;99.90;;;;;;5016643;28;20228;-76
2021/06/23 06:43:53;;;;;;;14.73;5.53;;;18.10;99.90;;;;;;5014273;28;20314;-75
2021/06/23 06:46:21;;;;;;;12.60;5.83;;;18.40;99.90;;;;;;5015797;28;20283;-76
2021/06/23 06:48:48;;;;;;;9.23;4.87;;;18.60;99.90;;;;;;5020320;28;20200;-76
2021/06/23 06:51:15;;;;;;;12.43;5.80;;;18.60;99.90;;;;;;5019277;28;20283;-77
2021/06/23 06:53:42;;;;;;;12.77;5.37;;;18.90;99.90;;;;;;5025947;28;22321;-76
2021/06/23 06:56:08;;;;;;;11.20;5.50;;;18.90;99.90;;;;;;5026737;28;20254;-76
2021/06/23 06:58:35;;;;;;;11.67;5.97;;;19.00;99.90;;;;;;5022101;28;20653;-76
2021/06/23 07:01:02;;;;;;;13.10;6.00;;;18.90;99.90;;;;;;5025043;28;20302;-76
2021/06/23 07:03:31;;;;;;;12.73;5.87;;;18.80;99.90;;;;;;5021556;28;20200;-76
2021/06/23 07:05:58;;;;;;;14.20;5.33;;;19.10;99.90;;;;;;5019840;28;20661;-76
2021/06/23 07:08:25;;;;;;;8.83;5.10;;;19.50;99.90;;;;;;5024290;28;20207;-76
2021/06/23 07:10:52;;;;;;;13.63;5.37;;;20.60;99.90;;;;;;5021033;28;20291;-76
2021/06/23 07:13:19;;;;;;;14.80;5.53;;;;;;;;;;5023304;28;20291;-76
2021/06/23 07:15:46;;;;;;;14.43;5.07;;;;;;;;;;5017984;28;20231;-77
2021/06/23 07:18:13;;;;;;;11.07;4.67;;;;;;;;;;5017128;28;20300;-76
2021/06/23 07:20:42;;;;;;;11.57;4.60;;;;;;;;;;5019517;28;20224;-76
2021/06/23 07:23:09;;;;;;;10.87;5.33;;;;;;;;;;5020640;28;20633;-76
2021/06/23 07:25:36;;;;;;;15.23;4.80;;;;;;;;;;5021533;28;20307;-77
2021/06/23 07:28:04;;;;;;;9.43;5.00;;;;;;;;;;5022659;28;20251;-76
2021/06/23 07:30:33;;;;;;;14.37;4.43;;;;;;;;;;5020790;28;20307;-77
2021/06/23 07:33:04;;;;;;;17.13;4.63;;;;;;;;;;5023851;28;20231;-76
2021/06/23 07:38:17;;;;;;;15.47;4.63;;;;;;;;;;5020786;28;20285;-76
2021/06/23 07:40:53;;;;;;;7.73;5.13;;;;;;;;;;5023976;28;20306;-77
2021/06/23 07:43:20;;;;;;;14.53;5.33;;;;;;;;;;5027151;28;20207;-76
2021/06/23 07:45:49;;;;;;;12.47;5.40;;;;;;;;;;5020173;28;20259;-76
2021/06/23 07:48:17;;;;;;;10.43;5.37;;;;;;;;;;5026307;28;20201;-76
2021/06/23 07:50:50;;;;;;;10.40;4.90;;;;;;;;;;5027085;28;20200;-75
2021/06/23 07:53:25;;;;;;;10.87;5.40;;;;;;;;;;5026848;28;20266;-76
2021/06/23 07:55:56;;;;;;;14.47;5.33;;;;;;;;;;5020638;28;20231;-75
2021/06/23 08:09:39;;;;;;;14.40;5.97;;;;;;;;;;5020822;28;20564;-76
2021/06/23 08:12:16;;;;;;;14.33;5.43;;;;;;;;;;5021376;28;20659;-76
2021/06/23 08:14:44;;;;;;;8.20;4.80;;;;;;;;;;5026892;28;20235;-76
2021/06/23 08:17:11;;;;;;;11.60;5.77;;;22.30;99.90;;;;;;5028730;28;20261;-76
2021/06/23 08:19:38;;;;;;;13.43;5.60;;;22.00;99.90;;;;;;5024689;28;20248;-75
2021/06/23 08:22:05;;;;;;;12.40;5.80;;;21.90;99.90;;;;;;5025814;28;20223;-76
2021/06/23 08:24:32;;;;;;;14.67;5.37;;;21.50;99.90;;;;;;5020001;28;20307;-76
2021/06/23 08:27:01;;;;;;;12.73;5.53;;;;;;;;;;5019199;28;20639;-76
2021/06/23 08:29:28;;;;;;;9.97;6.03;;;;;;;;;;5026869;28;20202;-75
2021/06/23 08:31:55;;;;;;;9.03;5.67;;;;;;;;;;5025312;28;20284;-76
2021/06/23 08:34:25;;;;;;;12.37;5.83;;;;;;;;;;5020949;28;20246;-76
2021/06/23 08:36:52;;;;;;;11.07;5.40;;;;;;;;;;5025838;28;20207;-76
2021/06/23 08:39:19;;;;;;;10.53;5.30;;;;;;;;;;5024811;28;20200;-76
2021/06/23 08:41:47;;;;;;;12.60;5.03;;;;;;;;;;5020220;28;20220;-76
2021/06/23 08:44:15;;;;;;;14.10;5.13;;;;;;;;;;5025501;28;20242;-75
2021/06/23 08:46:42;;;;;;;15.80;5.50;;;;;;;;;;5026026;28;20283;-75
2021/06/23 08:49:10;;;;;;;13.63;5.33;;;;;;;;;;5023431;28;20294;-75
2021/06/23 08:51:39;;;;;;;15.43;5.33;;;;;;;;;;5029810;28;20190;-76
2021/06/23 08:54:07;;;;;;;21.63;5.50;;;;;;;;;;5024855;28;20216;-76
2021/06/23 08:56:34;;;;;;;11.87;5.27;;;;;;;;;;5030163;28;20203;-76
2021/06/23 08:59:03;;;;;;;17.33;5.33;;;;;;;;;;5026306;28;20291;-76
2021/06/23 09:01:32;;;;;;;9.20;4.43;;;;;;;;;;5023113;28;20605;-77
2021/06/23 09:04:07;;;;;;;10.13;4.93;;;;;;;;;;5020762;28;20254;-76
2021/06/23 09:06:44;;;;;;;15.37;4.80;;;;;;;;;;5021834;28;20257;-76
2021/06/23 09:09:20;;;;;;;12.93;5.07;;;;;;;;;;5024686;28;20334;-76
2021/06/23 09:11:48;;;;;;;12.60;4.90;;;;;;;;;;5018587;28;20294;-76
2021/06/23 09:14:15;;;;;;;8.87;4.50;;;;;;;;;;5021459;28;20319;-76
2021/06/23 09:16:57;;;;;;;7.10;4.00;;;;;;;;;;5022204;28;20296;-75
2021/06/23 09:19:29;;;;;;;9.13;4.03;;;;;;;;;;5020865;28;20227;-76
2021/06/23 09:21:57;;;;;;;10.80;4.87;;;;;;;;;;5018708;28;20299;-76
2021/06/23 09:24:34;;;;;;;12.83;4.70;;;;;;;;;;5020902;28;20251;-75
2021/06/23 09:27:02;;;;;;;8.90;4.50;;;;;;;;;;5020897;28;20708;-76
2021/06/23 09:29:29;;;;;;;10.93;4.40;;;;;;;;;;5025052;28;20250;-77
2021/06/23 09:31:58;;;;;;;6.73;4.10;;;;;;;;;;5025000;28;20248;-76
2021/06/23 09:34:27;;;;;;;7.37;4.67;;;;;;;;;;5018594;28;20750;-75
2021/06/23 09:36:56;;;;;;;8.30;4.03;;;;;;;;;;5024493;28;20644;-76
2021/06/23 09:39:24;;;;;;;7.93;4.00;;;;;;;;;;5026155;28;20255;-76
2021/06/23 09:41:52;;;;;;;7.23;4.47;;;;;;;;;;5024149;28;20318;-76
2021/06/23 09:44:19;;;;;;;10.10;4.10;;;;;;;;;;5022812;28;20316;-75
2021/06/23 09:46:48;;;;;;;11.73;4.73;;;;;;;;;;5021809;28;20206;-76
2021/06/23 09:49:17;;;;;;;10.27;4.70;;;;;;;;;;5018817;28;20208;-76
2021/06/23 09:51:45;;;;;;;11.23;4.73;;;;;;;;;;5027612;28;20636;-75
2021/06/23 09:54:15;;;;;;;9.53;4.47;;;;;;;;;;5018397;28;20235;-76
2021/06/23 09:56:45;;;;;;;11.90;5.20;;;;;;;;;;5021734;28;20212;-76
2021/06/23 09:59:18;;;;;;;9.60;4.50;;;;;;;;;;5020308;28;20216;-76
2021/06/23 10:01:46;;;;;;;10.93;4.33;;;;;;;;;;5018817;28;20244;-76
2021/06/23 10:04:13;;;;;;;7.63;4.47;;;;;;;;;;5018721;28;20231;-76
2021/06/23 10:06:43;;;;;;;12.13;4.60;;;;;;;;;;5017755;28;20245;-77
2021/06/23 10:09:22;;;;;;;7.43;4.23;;;;;;;;;;5022595;28;20208;-76
2021/06/23 10:11:51;;;;;;;7.20;4.07;;;;;;;;;;5023220;28;20207;-76
2021/06/23 10:14:18;;;;;;;14.53;3.90;;;;;;;;;;5027882;28;20249;-76
2021/06/23 10:16:46;;;;;;;10.93;4.00;;;;;;;;;;5023107;28;20294;-76
2021/06/23 10:19:13;;;;;;;14.93;4.03;;;;;;;;;;5028870;28;20747;-76
2021/06/23 10:21:40;;;;;;;6.63;3.80;;;;;;;;;;5029335;28;20274;-76
2021/06/23 10:24:10;;;;;;;9.27;4.20;;;;;;;;;;5024809;28;20307;-76
2021/06/23 10:26:41;;;;;;;9.90;3.90;;;;;;;;;;5022618;28;20582;-75
2021/06/23 10:29:09;;;;;;;10.37;4.10;;;;;;;;;;5024891;28;20294;-76
2021/06/23 10:31:37;;;;;;;5.90;3.43;;;;;;;;;;5025770;28;20219;-76
2021/06/23 10:34:04;;;;;;;7.87;3.60;;;;;;;;;;5052475;22;20253;-77
2021/06/23 10:36:32;;;;;;;8.33;3.60;;;;;;;;;;5039581;28;20208;-75
2021/06/23 10:39:08;;;;;;;9.20;3.07;;;;;;;;;;5041250;28;20303;-76
2021/06/23 10:41:52;;;;;;;4.03;2.70;;;;;;;;;;5035195;28;20227;-76
2021/06/23 10:44:20;;;;;;;7.00;3.40;;;;;;;;;;5040233;28;20310;-75
2021/06/23 10:46:48;;;;;;;6.93;3.43;;;;;;;;;;5031363;28;20277;-76
2021/06/23 10:49:19;;;;;;;5.83;2.97;;;;;;;;;;5033145;28;20204;-76
2021/06/23 10:51:48;;;;;;;6.87;3.40;;;;;;;;;;5041180;28;20685;-76
2021/06/23 10:54:40;;;;;;;7.03;3.30;;;;;;;;;;5040634;28;20728;-76
2021/06/23 10:57:36;;;;;;;4.77;3.43;;;;;;;;;;5028518;28;20738;-76
2021/06/23 11:00:08;;;;;;;8.30;3.57;;;;;;;;;;5033601;28;20673;-75
2021/06/23 11:11:47;;;;;;;8.47;3.70;;;;;;;;;;5033960;28;20202;-75
2021/06/23 11:32:37;;;;;;;7.57;4.47;;;;;;;;;;5037661;28;20667;-75
2021/06/23 11:35:06;;;;;;;4.93;3.47;;;;;;;;;;5035474;28;20253;-76
2021/06/23 11:37:36;;;;;;;6.90;3.47;;;;;;;;;;5033589;28;20214;-76
2021/06/23 11:40:11;;;;;;;4.50;3.40;;;;;;;;;;5033379;28;20234;-76
2021/06/23 11:42:39;;;;;;;7.50;3.30;;;;;;;;;;5033610;28;20211;-76
2021/06/23 11:45:06;;;;;;;8.00;3.00;;;;;;;;;;5032913;28;20220;-76
2021/06/23 11:47:34;;;;;;;7.93;3.23;;;;;;;;;;5033521;28;20203;-75
2021/06/23 11:50:02;;;;;;;6.27;3.13;;;;;;;;;;5033424;28;20220;-76
2021/06/23 11:52:29;;;;;;;4.93;3.30;;;;;;;;;;5036824;28;20200;-76
2021/06/23 11:54:56;;;;;;;4.47;3.10;;;;;;;;;;5035391;28;20230;-76
2021/06/23 11:57:24;;;;;;;6.20;3.10;;;;;;;;;;5043075;28;20274;-76
2021/06/23 11:59:51;;;;;;;7.33;3.23;;;;;;;;;;5044727;28;20211;-76
2021/06/23 12:02:18;;;;;;;4.90;3.20;;;;;;;;;;5036401;28;20649;-77
2021/06/23 12:04:45;;;;;;;6.27;3.03;;;;;;;;;;5046298;28;20239;-76
2021/06/23 12:07:14;;;;;;;4.87;3.00;;;;;;;;;;5041213;28;20240;-76
2021/06/23 12:09:41;;;;;;;5.40;3.07;;;;;;;;;;5032585;28;20249;-76
2021/06/23 12:12:08;;;;;;;6.83;3.13;;;;;;;;;;5033834;28;20208;-76
2021/06/23 12:14:36;;;;;;;3.50;2.70;;;;;;;;;;5033531;28;20569;-76
2021/06/23 12:17:03;;;;;;;5.87;3.00;;;;;;;;;;5041818;28;20212;-76
2021/06/23 12:19:30;;;;;;;5.47;2.80;;;;;;;;;;5033401;28;20312;-78
2021/06/23 12:21:57;;;;;;;3.90;2.87;;;;;;;;;;5035328;28;20221;-76
2021/06/23 12:24:26;;;;;;;4.17;2.70;;;;;;;;;;5040336;28;20264;-76
2021/06/23 12:26:53;;;;;;;4.00;2.80;;;;;;;;;;5045755;28;20630;-75
2021/06/23 12:29:20;;;;;;;4.63;2.70;;;;;;;;;;5032708;28;20293;-76
2021/06/23 12:31:48;;;;;;;8.13;2.90;;;;;;;;;;5035391;28;20303;-77
2021/06/23 12:34:15;;;;;;;7.13;3.10;;;;;;;;;;5037582;28;20752;-76
2021/06/23 12:36:42;;;;;;;4.40;2.43;;;;;;;;;;5037458;28;20669;-76
2021/06/23 12:39:09;;;;;;;4.97;2.57;;;;;;;;;;5036436;28;20240;-76
2021/06/23 12:41:38;;;;;;;7.97;3.00;;;;;;;;;;5038524;28;20266;-76
2021/06/23 12:44:06;;;;;;;5.67;2.70;;;;;;;;;;5031268;28;20224;-76
2021/06/23 12:46:33;;;;;;;9.03;2.60;;;;;;;;;;5033327;28;20204;-76
2021/06/23 12:49:00;;;;;;;3.23;2.23;;;;;;;;;;5035508;28;20295;-76
2021/06/23 12:51:27;;;;;;;6.23;2.80;;;;;;;;;;5037066;28;20207;-76
2021/06/23 12:53:54;;;;;;;3.03;2.40;;;;;;;;;;5036647;28;20226;-76
2021/06/23 12:56:21;;;;;;;7.03;2.70;;;;;;;;;;5040238;28;20325;-76
2021/06/23 12:58:50;;;;;;;4.40;2.53;;;;;;;;;;5036317;28;20290;-76
2021/06/23 13:01:17;;;;;;;6.00;2.50;;;;;;;;;;5036231;28;20217;-76
2021/06/23 13:03:45;;;;;;;4.03;2.70;;;;;;;;;;5032369;28;20325;-76
2021/06/23 13:06:12;;;;;;;6.07;2.70;;;21.50;99.90;;;;;;5040626;28;20661;-76
2021/06/23 13:08:39;;;;;;;5.30;2.60;;;24.10;99.90;;;;;;5034613;28;20215;-76
2021/06/23 13:11:06;;;;;;;6.90;2.50;;;24.20;99.90;;;;;;5033117;28;20253;-76
2021/06/23 13:13:33;;;;;;;3.87;2.63;;;24.00;99.90;;;;;;5038734;28;20205;-76
2021/06/23 13:16:03;;;;;;;7.03;3.10;;;24.20;99.90;;;;;;5031485;28;20249;-76
2021/06/23 13:18:30;;;;;;;4.77;2.53;;;24.30;99.90;;;;;;5034157;28;20247;-76
2021/06/23 13:20:57;;;;;;;4.07;2.73;;;24.20;99.90;;;;;;5034740;28;20253;-75
2021/06/23 13:23:24;;;;;;;4.30;2.50;;;24.00;99.90;;;;;;5035395;28;20237;-75
2021/06/23 13:25:53;;;;;;;5.27;2.70;;;23.80;99.90;;;;;;5035738;28;20309;-75
2021/06/23 13:28:20;;;;;;;3.10;2.60;;;23.80;99.90;;;;;;5037506;28;20227;-76
2021/06/23 13:30:47;;;;;;;3.87;2.87;;;23.80;99.90;;;;;;5034576;28;20248;-75
2021/06/23 13:33:16;;;;;;;4.33;3.10;;;23.40;99.90;;;;;;5030552;28;20243;-76
2021/06/23 13:35:43;;;;;;;5.47;2.90;;;23.20;99.90;;;;;;5037113;28;20231;-75
2021/06/23 13:38:10;;;;;;;7.40;3.10;;;23.20;99.90;;;;;;5040725;28;20745;-75
2021/06/23 13:40:37;;;;;;;6.47;3.10;;;23.30;99.90;;;;;;5030534;28;20253;-76
2021/06/23 13:43:04;;;;;;;4.73;3.20;;;23.20;99.90;;;;;;5030723;28;20228;-75
2021/06/23 13:45:31;;;;;;;7.43;3.30;;;23.20;99.90;;;;;;5033720;28;20568;-76
2021/06/23 13:47:58;;;;;;;5.40;2.80;;;23.10;99.90;;;;;;5030649;28;20668;-75
2021/06/23 13:50:26;;;;;;;6.83;3.60;;;23.00;99.90;;;;;;5031319;28;20291;-76
2021/06/23 13:52:53;;;;;;;4.37;3.00;;;23.00;99.90;;;;;;5031991;28;20551;-75
2021/06/23 13:55:26;;;;;;;9.30;3.60;;;23.20;99.90;;;;;;5029795;28;20223;-75
2021/06/23 13:57:57;;;;;;;4.97;2.90;;;23.10;99.90;;;;;;5033408;28;20289;-75
2021/06/23 14:00:26;;;;;;;4.30;2.60;;;23.00;99.90;;;;;;5034687;28;20286;-74
2021/06/23 14:02:53;;;;;;;4.27;3.20;;;23.20;99.90;;;;;;5034969;28;20310;-75
2021/06/23 14:05:20;;;;;;;5.70;3.17;;;23.20;99.90;;;;;;5032601;28;20306;-75
2021/06/23 14:07:48;;;;;;;8.10;3.80;;;23.10;99.90;;;;;;5031840;28;20204;-75
2021/06/23 14:10:15;;;;;;;8.83;4.10;;;23.10;99.90;;;;;;5032117;28;20654;-76
2021/06/23 14:12:42;;;;;;;6.07;4.10;;;23.20;99.90;;;;;;5030770;28;20296;-76
2021/06/23 14:15:11;;;;;;;7.17;4.40;;;23.10;99.90;;;;;;5029883;28;20226;-76
2021/06/23 14:17:39;;;;;;;7.70;4.70;;;23.10;99.90;;;;;;5031250;28;20196;-76
2021/06/23 14:20:08;;;;;;;6.33;4.23;;;23.10;99.90;;;;;;5033724;28;20675;-76
2021/06/23 14:22:35;;;;;;;6.87;3.50;;;23.40;99.90;;;;;;5037515;28;20220;-76
2021/06/23 14:25:04;;;;;;;5.47;3.63;;;23.40;99.90;;;;;;5030617;28;20315;-76
2021/06/23 14:27:31;;;;;;;5.17;3.13;;;23.60;99.90;;;;;;5029702;28;20679;-76
2021/06/23 14:29:58;;;;;;;6.07;3.10;;;23.90;99.90;;;;;;5034670;28;20211;-76
2021/06/23 14:32:27;;;;;;;7.33;3.60;;;24.30;99.90;;;;;;5037357;28;20276;-76
2021/06/23 14:34:54;;;;;;;6.53;3.10;;;24.30;99.90;;;;;;5033944;28;20314;-75
2021/06/23 14:37:21;;;;;;;5.30;3.03;;;24.40;99.90;;;;;;5034907;28;20302;-76
2021/06/23 14:39:48;;;;;;;5.90;3.57;;;24.50;99.90;;;;;;5031327;28;20215;-76
2021/06/23 14:42:17;;;;;;;4.73;2.93;;;24.40;99.90;;;;;;5030957;28;20225;-75
2021/06/23 14:44:44;;;;;;;7.30;3.50;;;24.10;99.90;;;;;;5038406;28;20619;-76
2021/06/23 14:47:11;;;;;;;3.87;3.40;;;24.20;99.90;;;;;;5034728;28;20285;-76